createdAt,value
2022-12-16T00:01:18.963Z,-2.02
2022-12-16T00:04:31.246Z,-2.01
2022-12-16T00:07:43.040Z,-2.01
2022-12-16T00:10:57.869Z,-2.01
2022-12-16T00:14:09.965Z,-2.01
2022-12-16T00:17:22.036Z,-2.06
2022-12-16T00:20:34.083Z,-2.00
2022-12-16T00:23:46.594Z,-1.96
2022-12-16T00:26:58.585Z,-1.96
2022-12-16T00:30:12.747Z,-1.98
2022-12-16T00:33:25.984Z,-1.99
2022-12-16T00:36:39.578Z,-2.00
2022-12-16T00:39:51.446Z,-2.04
2022-12-16T00:43:03.970Z,-1.99
2022-12-16T00:46:18.191Z,-1.99
2022-12-16T00:49:30.392Z,-1.92
2022-12-16T00:52:42.595Z,-1.96
2022-12-16T00:55:54.824Z,-1.94
2022-12-16T00:59:06.753Z,-1.96
2022-12-16T01:02:18.834Z,-1.96
2022-12-16T01:05:31.383Z,-1.96
2022-12-16T01:08:47.568Z,-1.98
2022-12-16T01:11:59.399Z,-1.97
2022-12-16T01:15:15.240Z,-1.92
2022-12-16T01:18:27.169Z,-1.99
2022-12-16T01:21:39.040Z,-2.03
2022-12-16T01:24:51.424Z,-1.95
2022-12-16T01:28:03.435Z,-1.95
2022-12-16T01:31:15.819Z,-1.99
2022-12-16T01:34:28.066Z,-1.98
2022-12-16T01:37:39.827Z,-1.99
2022-12-16T01:40:52.056Z,-1.97
2022-12-16T01:44:23.377Z,-2.00
2022-12-16T01:47:38.878Z,-2.01
2022-12-16T01:50:51.666Z,-2.02
2022-12-16T01:54:09.556Z,-2.07
2022-12-16T01:57:28.859Z,-2.04
2022-12-16T02:00:41.698Z,-2.05
2022-12-16T02:03:55.488Z,-2.02
2022-12-16T02:07:07.855Z,-2.06
2022-12-16T02:10:20.410Z,-2.07
2022-12-16T02:13:39.600Z,-2.04
2022-12-16T02:16:57.680Z,-2.08
2022-12-16T02:21:04.918Z,-2.05
2022-12-16T02:25:10.114Z,-2.02
2022-12-16T02:28:31.328Z,-2.03
2022-12-16T02:31:53.114Z,-2.11
2022-12-16T02:35:09.230Z,-1.98
2022-12-16T02:38:28.497Z,-2.00
2022-12-16T02:41:48.428Z,-1.97
2022-12-16T02:45:06.424Z,-1.94
2022-12-16T02:48:18.704Z,-1.98
2022-12-16T02:51:33.201Z,-1.97
2022-12-16T02:54:46.172Z,-1.96
2022-12-16T02:58:18.956Z,-2.03
2022-12-16T03:01:35.504Z,-2.02
2022-12-16T03:04:52.970Z,-2.07
2022-12-16T03:08:09.586Z,-2.07
2022-12-16T03:11:22.158Z,-2.08
2022-12-16T03:14:38.467Z,-2.04
2022-12-16T03:17:53.020Z,-2.08
2022-12-16T03:21:09.332Z,-2.08
2022-12-16T03:24:22.058Z,-2.07
2022-12-16T03:27:38.924Z,-2.10
2022-12-16T03:30:52.143Z,-2.09
2022-12-16T03:34:10.908Z,-2.09
2022-12-16T03:37:24.869Z,-2.07
2022-12-16T03:40:38.642Z,-2.02
2022-12-16T03:43:51.178Z,-2.06
2022-12-16T03:47:02.919Z,-2.05
2022-12-16T03:50:15.859Z,-2.07
2022-12-16T03:53:28.124Z,-2.08
2022-12-16T03:56:40.129Z,-2.08
2022-12-16T03:59:51.880Z,-2.03
2022-12-16T04:03:03.881Z,-2.02
2022-12-16T04:06:18.087Z,-2.04
2022-12-16T04:09:29.893Z,-2.16
2022-12-16T04:12:56.317Z,-2.13
2022-12-16T04:16:23.306Z,-2.11
2022-12-16T04:19:55.413Z,-2.09
2022-12-16T04:23:18.394Z,-2.10
2022-12-16T04:26:30.662Z,-2.06
2022-12-16T04:29:44.668Z,-2.04
2022-12-16T04:33:15.501Z,-2.01
2022-12-16T04:36:42.429Z,-1.97
2022-12-16T04:40:09.680Z,-1.95
2022-12-16T04:43:38.989Z,-1.90
2022-12-16T04:47:05.791Z,-1.87
2022-12-16T04:50:32.636Z,-1.83
2022-12-16T04:53:59.133Z,-1.78
2022-12-16T04:57:26.061Z,-1.77
2022-12-16T05:00:52.502Z,-1.79
2022-12-16T05:04:18.859Z,-1.74
2022-12-16T05:07:45.233Z,-1.70
2022-12-16T05:11:12.133Z,-1.64
2022-12-16T05:14:38.830Z,-1.63
2022-12-16T05:18:05.264Z,-1.61
2022-12-16T05:21:43.471Z,-1.58
2022-12-16T05:25:10.288Z,-1.58
2022-12-16T05:28:37.454Z,-1.56
2022-12-16T05:32:04.085Z,-1.55
2022-12-16T05:35:30.641Z,-1.50
2022-12-16T05:38:57.412Z,-1.49
2022-12-16T05:42:23.875Z,-1.45
2022-12-16T05:45:50.545Z,-1.45
2022-12-16T05:49:28.392Z,-1.45
2022-12-16T05:52:53.340Z,-1.38
2022-12-16T05:56:19.884Z,-1.37
2022-12-16T05:59:46.582Z,-1.42
2022-12-16T06:03:13.375Z,-1.33
2022-12-16T06:06:40.060Z,-1.30
2022-12-16T06:10:06.810Z,-1.24
2022-12-16T06:13:33.761Z,-1.25
2022-12-16T06:16:58.885Z,-1.25
2022-12-16T06:20:28.559Z,-1.22
2022-12-16T06:23:54.947Z,-1.24
2022-12-16T06:27:21.594Z,-1.22
2022-12-16T06:30:47.957Z,-1.23
2022-12-16T06:34:10.995Z,-1.21
2022-12-16T06:37:38.165Z,-1.15
2022-12-16T06:41:17.201Z,-1.14
2022-12-16T06:44:42.081Z,-1.10
2022-12-16T06:48:08.739Z,-1.11
2022-12-16T06:51:35.925Z,-1.05
2022-12-16T06:55:02.280Z,-1.07
2022-12-16T06:58:29.311Z,-1.00
2022-12-16T07:01:57.953Z,-0.97
2022-12-16T07:05:25.553Z,-0.96
2022-12-16T07:08:50.118Z,-0.93
2022-12-16T07:12:27.892Z,-0.95
2022-12-16T07:15:52.781Z,-0.93
2022-12-16T07:19:19.890Z,-0.93
2022-12-16T07:22:46.440Z,-0.91
2022-12-16T07:26:12.996Z,-0.89
2022-12-16T07:29:39.835Z,-0.94
2022-12-16T07:33:09.644Z,-0.89
2022-12-16T07:36:35.868Z,-0.83
2022-12-16T07:40:03.404Z,-0.80
2022-12-16T07:43:30.447Z,-0.84
2022-12-16T07:46:57.411Z,-0.82
2022-12-16T07:50:24.145Z,-0.77
2022-12-16T07:53:50.542Z,-0.76
2022-12-16T07:57:17.242Z,-0.74
2022-12-16T08:00:44.028Z,-0.77
2022-12-16T08:04:10.910Z,-0.74
2022-12-16T08:07:37.198Z,-0.72
2022-12-16T08:11:03.502Z,-0.67
2022-12-16T08:14:30.015Z,-0.69
2022-12-16T08:17:57.012Z,-0.69
2022-12-16T08:21:24.699Z,-0.71
2022-12-16T08:24:53.429Z,-0.70
2022-12-16T08:28:19.770Z,-0.64
2022-12-16T08:31:46.425Z,-0.64
2022-12-16T08:35:12.696Z,-0.67
2022-12-16T08:38:38.939Z,-0.64
2022-12-16T08:42:05.419Z,-0.62
2022-12-16T08:45:32.530Z,-0.62
2022-12-16T08:48:59.283Z,-0.65
2022-12-16T08:52:26.141Z,-0.62
2022-12-16T08:55:55.735Z,-0.57
2022-12-16T08:59:21.010Z,-0.60
2022-12-16T09:02:49.110Z,-0.60
2022-12-16T09:06:19.688Z,-0.56
2022-12-16T09:09:46.262Z,-0.55
2022-12-16T09:13:27.589Z,-0.60
2022-12-16T09:16:54.358Z,-0.59
2022-12-16T09:20:21.085Z,-0.56
2022-12-16T09:23:48.069Z,-0.46
2022-12-16T09:27:29.202Z,-0.47
2022-12-16T09:30:56.435Z,-0.48
2022-12-16T09:34:23.710Z,-0.42
2022-12-16T09:37:53.149Z,-0.38
2022-12-16T09:41:30.381Z,-0.34
2022-12-16T09:45:07.037Z,-0.31
2022-12-16T09:48:39.842Z,-0.24
2022-12-16T09:52:08.175Z,-0.25
2022-12-16T09:55:43.676Z,-0.18
2022-12-16T09:59:15.475Z,-0.15
2022-12-16T10:02:43.271Z,-0.07
2022-12-16T10:06:16.637Z,0.02
2022-12-16T10:09:50.299Z,0.11
2022-12-16T10:13:22.782Z,0.04
2022-12-16T10:16:55.398Z,0.07
2022-12-16T10:20:26.791Z,0.01
2022-12-16T10:23:57.735Z,0.12
2022-12-16T10:27:30.522Z,0.24
2022-12-16T10:30:59.453Z,0.30
2022-12-16T10:34:29.136Z,0.36
2022-12-16T10:37:59.277Z,0.29
2022-12-16T10:41:26.986Z,0.31
2022-12-16T10:44:57.336Z,0.38
2022-12-16T10:48:24.837Z,0.40
2022-12-16T10:51:49.883Z,0.47
2022-12-16T10:55:25.383Z,0.51
2022-12-16T10:58:58.894Z,0.56
2022-12-16T11:02:36.958Z,0.39
2022-12-16T11:06:03.603Z,0.33
2022-12-16T11:09:49.165Z,0.37
2022-12-16T11:13:16.663Z,0.30
2022-12-16T11:16:46.070Z,0.45
2022-12-16T11:20:29.983Z,0.44
2022-12-16T11:23:56.442Z,0.45
2022-12-16T11:27:25.410Z,0.49
2022-12-16T11:30:52.541Z,0.43
2022-12-16T11:34:21.064Z,0.37
2022-12-16T11:37:49.785Z,0.42
2022-12-16T11:41:22.380Z,0.46
2022-12-16T11:44:53.860Z,0.50
2022-12-16T11:48:26.329Z,0.43
2022-12-16T11:52:08.121Z,0.47
2022-12-16T11:59:12.529Z,0.46
2022-12-16T12:02:44.559Z,0.34
2022-12-16T12:06:17.134Z,0.28
2022-12-16T12:09:46.616Z,0.32
2022-12-16T12:13:17.857Z,0.35
2022-12-16T12:16:50.497Z,0.44
2022-12-16T12:20:37.586Z,0.49
2022-12-16T12:24:18.554Z,0.51
2022-12-16T12:27:50.444Z,0.43
2022-12-16T12:31:23.867Z,0.50
2022-12-16T12:34:56.113Z,0.52
2022-12-16T12:38:27.962Z,0.56
2022-12-16T12:42:09.120Z,0.52
2022-12-16T12:45:55.459Z,0.44
2022-12-16T12:49:28.175Z,0.53
2022-12-16T12:53:28.090Z,0.56
2022-12-16T12:57:02.634Z,0.45
2022-12-16T13:00:38.353Z,0.38
2022-12-16T13:04:14.915Z,0.29
2022-12-16T13:07:41.778Z,0.22
2022-12-16T13:11:23.168Z,0.25
2022-12-16T13:15:16.408Z,0.15
2022-12-16T13:18:46.215Z,0.14
2022-12-16T13:22:12.774Z,0.13
2022-12-16T13:26:01.956Z,0.14
2022-12-16T13:29:38.861Z,0.13
2022-12-16T13:33:15.978Z,0.09
2022-12-16T13:36:44.844Z,0.07
2022-12-16T13:40:24.851Z,0.01
2022-12-16T13:44:08.160Z,0.02
2022-12-16T13:47:53.692Z,0.08
2022-12-16T13:51:20.068Z,0.00
2022-12-16T13:54:49.782Z,-0.01
2022-12-16T13:58:24.144Z,0.04
2022-12-16T14:01:56.785Z,0.07
2022-12-16T14:05:30.803Z,0.02
2022-12-16T14:08:59.633Z,-0.01
2022-12-16T14:12:32.956Z,-0.01
2022-12-16T14:16:16.239Z,-0.04
2022-12-16T14:19:47.964Z,-0.06
2022-12-16T14:23:47.401Z,0.00
2022-12-16T14:26:49.284Z,0.05
2022-12-16T14:30:16.300Z,0.11
2022-12-16T14:33:48.314Z,0.13
2022-12-16T14:37:18.104Z,0.17
2022-12-16T14:40:47.361Z,0.14
2022-12-16T14:44:14.047Z,0.08
2022-12-16T14:47:56.762Z,0.07
2022-12-16T14:51:44.607Z,0.03
2022-12-16T14:55:11.464Z,0.03
2022-12-16T14:58:40.412Z,0.02
2022-12-16T15:02:07.940Z,-0.01
2022-12-16T15:05:35.663Z,0.00
2022-12-16T15:09:08.578Z,-0.07
2022-12-16T15:12:40.314Z,-0.14
2022-12-16T15:16:09.106Z,-0.14
2022-12-16T15:19:39.872Z,-0.13
2022-12-16T15:23:09.768Z,-0.16
2022-12-16T15:26:43.018Z,-0.17
2022-12-16T15:30:09.714Z,-0.11
2022-12-16T15:33:40.881Z,-0.16
2022-12-16T15:37:09.653Z,-0.15
2022-12-16T15:40:48.718Z,-0.18
2022-12-16T15:44:15.771Z,-0.22
2022-12-16T15:47:50.113Z,-0.25
2022-12-16T15:51:17.032Z,-0.18
2022-12-16T15:54:44.998Z,-0.12
2022-12-16T15:58:19.154Z,-0.07
2022-12-16T16:01:48.345Z,-0.06
2022-12-16T16:05:17.898Z,-0.06
2022-12-16T16:08:45.358Z,-0.09
2022-12-16T16:12:11.873Z,-0.04
2022-12-16T16:15:38.744Z,-0.01
2022-12-16T16:19:05.651Z,-0.06
2022-12-16T16:22:36.086Z,-0.07
2022-12-16T16:26:04.156Z,-0.09
2022-12-16T16:29:32.317Z,-0.12
2022-12-16T16:33:04.187Z,-0.13
2022-12-16T16:36:36.324Z,-0.18
2022-12-16T16:40:04.031Z,-0.14
2022-12-16T16:43:31.087Z,-0.13
2022-12-16T16:47:00.870Z,-0.14
2022-12-16T16:50:33.379Z,-0.16
2022-12-16T16:54:00.399Z,-0.20
2022-12-16T16:57:28.545Z,-0.23
2022-12-16T17:00:56.003Z,-0.22
2022-12-16T17:04:22.869Z,-0.26
2022-12-16T17:07:53.762Z,-0.30
2022-12-16T17:11:18.395Z,-0.33
2022-12-16T17:14:45.039Z,-0.30
2022-12-16T17:18:14.422Z,-0.34
2022-12-16T17:21:41.394Z,-0.39
2022-12-16T17:25:08.022Z,-0.46
2022-12-16T17:28:34.515Z,-0.43
2022-12-16T17:32:01.133Z,-0.51
2022-12-16T17:35:29.475Z,-0.50
2022-12-16T17:38:58.786Z,-0.53
2022-12-16T17:42:25.785Z,-0.52
2022-12-16T17:45:52.547Z,-0.50
2022-12-16T17:49:35.274Z,-0.56
2022-12-16T17:53:02.648Z,-0.61
2022-12-16T17:56:31.000Z,-0.60
2022-12-16T17:59:57.749Z,-0.64
2022-12-16T18:03:24.617Z,-0.73
2022-12-16T18:06:52.990Z,-0.71
2022-12-16T18:10:19.719Z,-0.62
2022-12-16T18:13:46.672Z,-0.65
2022-12-16T18:17:13.433Z,-0.70
2022-12-16T18:20:40.230Z,-0.63
2022-12-16T18:24:06.904Z,-0.65
2022-12-16T18:27:33.581Z,-0.70
2022-12-16T18:31:05.311Z,-0.64
2022-12-16T18:34:32.218Z,-0.58
2022-12-16T18:37:58.190Z,-0.58
2022-12-16T18:41:33.195Z,-0.54
2022-12-16T18:45:01.226Z,-0.49
2022-12-16T18:48:29.503Z,-0.50
2022-12-16T18:51:56.371Z,-0.61
2022-12-16T18:55:23.879Z,-0.64
2022-12-16T18:58:51.881Z,-0.58
2022-12-16T19:02:19.118Z,-0.59
2022-12-16T19:05:46.483Z,-0.62
2022-12-16T19:09:13.343Z,-0.63
2022-12-16T19:12:40.196Z,-0.67
2022-12-16T19:16:14.976Z,-0.66
2022-12-16T19:19:41.845Z,-0.72
2022-12-16T19:23:08.677Z,-0.70
2022-12-16T19:26:36.311Z,-0.65
2022-12-16T19:30:03.176Z,-0.66
2022-12-16T19:33:30.040Z,-0.68
2022-12-16T19:36:56.782Z,-0.65
2022-12-16T19:40:25.130Z,-0.66
2022-12-16T19:43:53.411Z,-0.71
2022-12-16T19:47:20.404Z,-0.75
2022-12-16T19:50:47.244Z,-0.83
2022-12-16T19:54:13.845Z,-0.82
2022-12-16T19:57:40.869Z,-0.82
2022-12-16T20:01:07.652Z,-0.87
2022-12-16T20:04:46.130Z,-0.91
2022-12-16T20:08:13.575Z,-0.91
2022-12-16T20:11:40.332Z,-0.95
2022-12-16T20:15:06.859Z,-0.94
2022-12-16T20:18:33.481Z,-1.00
2022-12-16T20:22:06.766Z,-1.03
2022-12-16T20:25:30.486Z,-1.00
2022-12-16T20:28:55.040Z,-0.97
2022-12-16T20:32:23.121Z,-1.00
2022-12-16T20:35:49.568Z,-0.98
2022-12-16T20:39:16.187Z,-1.00
2022-12-16T20:42:42.919Z,-1.07
2022-12-16T20:46:11.466Z,-1.08
2022-12-16T20:49:38.178Z,-1.03
2022-12-16T20:53:05.024Z,-1.02
2022-12-16T20:56:31.659Z,-1.03
2022-12-16T20:59:58.364Z,-0.97
2022-12-16T21:03:29.259Z,-0.98
2022-12-16T21:06:56.259Z,-0.94
2022-12-16T21:10:21.629Z,-0.91
2022-12-16T21:13:48.838Z,-0.94
2022-12-16T21:17:16.128Z,-1.05
2022-12-16T21:20:42.574Z,-1.02
2022-12-16T21:24:09.761Z,-1.01
2022-12-16T21:27:34.785Z,-1.05
2022-12-16T21:31:01.576Z,-1.09
2022-12-16T21:34:27.475Z,-1.08
2022-12-16T21:37:53.887Z,-1.16
2022-12-16T21:41:20.733Z,-1.19
2022-12-16T21:44:47.564Z,-1.22
2022-12-16T21:48:16.429Z,-1.15
2022-12-16T21:51:43.101Z,-1.11
2022-12-16T21:55:09.518Z,-1.09
2022-12-16T21:58:36.299Z,-1.08
2022-12-16T22:02:02.662Z,-1.09
2022-12-16T22:05:29.475Z,-1.06
2022-12-16T22:08:56.334Z,-1.08
2022-12-16T22:12:23.524Z,-1.15
2022-12-16T22:16:02.808Z,-1.14
2022-12-16T22:19:30.077Z,-1.10
2022-12-16T22:22:58.895Z,-1.20
2022-12-16T22:26:37.299Z,-1.20
2022-12-16T22:30:03.947Z,-1.18
2022-12-16T22:33:32.515Z,-1.25
2022-12-16T22:36:59.358Z,-1.32
2022-12-16T22:40:28.289Z,-1.31
2022-12-16T22:43:54.687Z,-1.30
2022-12-16T22:47:23.246Z,-1.32
2022-12-16T22:50:51.665Z,-1.36
2022-12-16T22:54:23.730Z,-1.41
2022-12-16T22:57:53.472Z,-1.48
2022-12-16T23:01:20.392Z,-1.47
2022-12-16T23:04:46.982Z,-1.50
2022-12-16T23:08:13.821Z,-1.48
2022-12-16T23:11:43.308Z,-1.52
2022-12-16T23:15:09.954Z,-1.52
2022-12-16T23:18:36.918Z,-1.56
2022-12-16T23:22:03.492Z,-1.51
2022-12-16T23:25:30.292Z,-1.50
2022-12-16T23:28:56.572Z,-1.51
2022-12-16T23:32:23.352Z,-1.49
2022-12-16T23:35:50.155Z,-1.57
2022-12-16T23:39:17.011Z,-1.55
2022-12-16T23:42:43.500Z,-1.59
2022-12-16T23:46:10.240Z,-1.56
2022-12-16T23:49:37.241Z,-1.57
2022-12-16T23:53:03.911Z,-1.69
2022-12-16T23:56:30.678Z,-1.65
2022-12-16T23:59:56.977Z,-1.62
